Lexington Weather

Lexington, Massachusetts, USA

50°F
12/8/2022 2:07pm 
  • Lexington Conditions: Clear
  • Temperature: 49.5°F / 9.7°CColder 1.6°F than last hour.
  • Dew Point: 34.9°FDecreased 1.1°Fsince last hour.
  • Relative Humidity: 57%Increased 1.0% since last hour.
  • Wind: Wind from NNW NNW 5 mph, 10-min avg: 4 mph, gust: 11 mph
  • Barometer: 30.07 inRising 0.02  inHg/hr Rising Slowly
  • Visibility: 10 miles
  • Rain Today: 0.00 in
  •   

Nearby Reports - Official Weather Stations - Current Conditions

Data from the National Weather Service

KBED - Bedford, MA


Distance from station: WNW 4mi, 6km

Updated Thu Dec 8, 2022 1:51pm EST

Clear

Clear

Wind from NW

Wind:

NW 14 mph, 22 km/h,
Gust: 21 mph, 33 km/h

Temperature: 54°F (12°C)

Dew Point: 32°F (0°C)

Humidity: 44%

Barometer: 30.10 in (1019.3 hPa)

Clouds: Clear

Visibility: 10 miles (16 km)


2022/12/08 18:51 KBED 081851Z 32012G18KT 10SM CLR 12/00 A3010 RMK AO2 SLP206 T01170000

KBOS - Boston, MA


Distance from station: ESE 12mi, 20km

Updated Thu Dec 8, 2022 1:54pm EST

Few Clouds

Few Clouds

Wind from NNW

Wind:

NNW 17 mph, 28 km/h,
Gust: 25 mph, 41 km/h

Temperature: 52°F (11°C)

Dew Point: 30°F (-1°C)

Humidity: 44%

Barometer: 30.11 in (1019.6 hPa)

Clouds: Few Clouds

Visibility: 10 miles (16 km)

Cloud details: Few Clouds 5000 ft
Few Clouds 25000 ft


2022/12/08 18:54 KBOS 081854Z 33015G22KT 10SM FEW050 FEW250 11/M01 A3011 RMK AO2 SLP197 T01111011

KOWD - Norwood, MA


Distance from station: SSE 18mi, 29km

Updated Thu Dec 8, 2022 1:53pm EST

Clear

Clear

Wind from NNW

Wind:

NNW 12 mph, 19 km/h,
Gust: 22 mph, 35 km/h

Temperature: 54°F (12°C)

Dew Point: 32°F (0°C)

Humidity: 44%

Barometer: 30.11 in (1019.6 hPa)

Clouds: Clear

Visibility: 10 miles (16 km)


2022/12/08 18:53 KOWD 081853Z 33010G19KT 10SM CLR 12/00 A3011 RMK AO2 SLP196 T01220000

KBVY - Beverly, MA


Distance from station: ENE 19mi, 31km

Updated Thu Dec 8, 2022 1:53pm EST

Few Clouds

Few Clouds

Wind from NNW

Wind:

NNW 16 mph, 26 km/h,
Gust: 24 mph, 39 km/h

Temperature: 48°F (9°C)

Wind Chill: 42°F (6°C)

Dew Point: 32°F (0°C)

Humidity: 54%

Barometer: 30.10 in (1019.3 hPa)

Clouds: Few Clouds

Visibility: 10 miles (16 km)

Cloud details: Few Clouds 4300 ft


2022/12/08 18:53 KBVY 081853Z 33014G21KT 10SM FEW043 09/00 A3010 RMK AO2 SLP189 T00940000

KLWM - Lawrence, MA


Distance from station: NNE 20mi, 32km

Updated Thu Dec 8, 2022 1:54pm EST

Clear

Clear

Wind from NW

Wind:

NW 16 mph, 26 km/h,
Gust: 26 mph, 43 km/h

Temperature: 48°F (9°C)

Wind Chill: 42°F (6°C)

Dew Point: 30°F (-1°C)

Humidity: 50%

Barometer: 30.14 in (1020.7 hPa)

Clouds: Clear

Visibility: 10 miles (16 km)


2022/12/08 18:54 KLWM 081854Z 32014G23KT 10SM CLR 09/M01 A3014 RMK AO2 SLP206 T00941011

KFIT - Fitchburg, MA


Distance from station: WNW 27mi, 44km

Updated Thu Dec 8, 2022 1:52pm EST

Clear

Clear

Wind from NW

Wind:

NW 16 mph, 26 km/h,
Gust: 24 mph, 39 km/h

Temperature: 50°F (10°C)

Wind Chill: 44°F (7°C)

Dew Point: 27°F (-3°C)

Humidity: 40%

Barometer: 30.13 in (1020.3 hPa)

Clouds: Clear

Visibility: 10 miles (16 km)


2022/12/08 18:52 KFIT 081852Z AUTO 31014G21KT 10SM CLR 10/M03 A3013 RMK AO2 PK WND 31028/1757 RAE19 SLP205 P0000 T01001028

KASH - Nashua/Boire Fld, NH


Distance from station: NNW 28mi, 44km

Updated Thu Dec 8, 2022 1:56pm EST

Clear

Clear

Wind from NNW

Wind:

NNW 20 mph, 31 km/h,
Gust: 29 mph, 46 km/h

Temperature: 48°F (9°C)

Wind Chill: 41°F (5°C)

Dew Point: 30°F (-1°C)

Humidity: 50%

Barometer: 30.13 in (1020.3 hPa)

Clouds: Clear

Visibility: 10 miles (16 km)


2022/12/08 18:56 KASH 081856Z 34017G25KT 10SM CLR 09/M01 A3013 RMK AO2 SLP209 T00941011

KORH - Worcester, MA


Distance from station: WSW 34mi, 55km

Updated Thu Dec 8, 2022 1:54pm EST

Clear

Clear

Wind from WNW

Wind:

WNW 20 mph, 31 km/h

Temperature: 48°F (9°C)

Wind Chill: 41°F (5°C)

Dew Point: 30°F (-1°C)

Humidity: 50%

Barometer: 30.10 in (1019.3 hPa)

Clouds: Clear

Visibility: 10 miles (16 km)


2022/12/08 18:54 KORH 081854Z 30017KT 10SM CLR 09/M01 A3010 RMK AO2 PK WND 30028/1803 SLP198 T00891006

KMHT - Manchester, NH


Distance from station: NNW 35mi, 57km

Updated Thu Dec 8, 2022 1:53pm EST

Mostly cloudy

Mostly cloudy

Wind from NNW

Wind:

NNW 18 mph, 30 km/h,
Gust: 28 mph, 44 km/h

Temperature: 48°F (9°C)

Wind Chill: 41°F (5°C)

Dew Point: 28°F (-2°C)

Humidity: 46%

Barometer: 30.13 in (1020.3 hPa)

Clouds: Mostly cloudy

Visibility: 10 miles (16 km)

Cloud details: Mostly cloudy 4100 ft
Mostly cloudy 20000 ft


2022/12/08 18:53 KMHT 081853Z 33016G24KT 10SM BKN041 BKN200 09/M02 A3013 RMK AO2 PK WND 34026/1812 SLP217 T00941017

KGHG - Marshfield, MA


Distance from station: SE 38mi, 60km

Updated Thu Dec 8, 2022 1:35pm EST

Wind from NNW

Wind:

NNW 13 mph, 20 km/h,
Gust: 21 mph, 33 km/h

Temperature: 52°F (11°C)

Dew Point: 32°F (0°C)

Humidity: 47%

Barometer: 30.09 in (1019 hPa)

Visibility: 10 miles (16 km)


2022/12/08 18:35 KGHG 081835Z AUTO 34011G18KT 300V020 10SM 11/M00 A3009 RMK AO2

KSFZ - Pawtucket, RI


Distance from station: SSW 39mi, 62km

Updated Thu Dec 8, 2022 1:56pm EST

Clear

Clear

Wind from NW

Wind:

NW 17 mph, 28 km/h,
Gust: 25 mph, 41 km/h

Temperature: 48°F (9°C)

Wind Chill: 42°F (6°C)

Dew Point: 34°F (1°C)

Humidity: 58%

Barometer: 30.11 in (1019.6 hPa)

Clouds: Clear

Visibility: 10 miles (16 km)


2022/12/08 18:56 KSFZ 081856Z AUTO 31015G22KT 10SM CLR 09/01 A3011 RMK AO2 PK WND 34026/1757 SLP199 T00940006

KTAN - Taunton, MA


Distance from station: SSE 40mi, 65km

Updated Thu Dec 8, 2022 1:52pm EST

Barometer: 30.10 in (1019.3 hPa)


2022/12/08 18:52 KTAN 081852Z AUTO A3010 RMK AO2 SLPNO PWINO FZRANO TSNO $

KPYM - Plymouth, MA


Distance from station: SE 44mi, 72km

Updated Thu Dec 8, 2022 1:52pm EST

Clear

Clear

Wind from NW

Wind:

NW 12 mph, 19 km/h,
Gust: 21 mph, 33 km/h

Temperature: 54°F (12°C)

Dew Point: 34°F (1°C)

Humidity: 47%

Barometer: 30.09 in (1019 hPa)

Clouds: Clear

Visibility: 10 miles (16 km)


2022/12/08 18:52 KPYM 081852Z AUTO 31010G18KT 10SM CLR 12/01 A3009 RMK AO2 SLP191 T01170006

KAFN - Jaffrey, NH


Distance from station: WNW 46mi, 74km

Updated Thu Dec 8, 2022 1:52pm EST

Mostly cloudy

Mostly cloudy

Wind from N

Wind:

N 9 mph, 15 km/h,
Gust: 24 mph, 39 km/h

Temperature: 46°F (8°C)

Wind Chill: 41°F (5°C)

Dew Point: 30°F (-1°C)

Humidity: 53%

Barometer: 30.13 in (1020.3 hPa)

Clouds: Mostly cloudy

Visibility: 10 miles (16 km)

Cloud details: Mostly cloudy 3800 ft


2022/12/08 18:52 KAFN 081852Z AUTO 35008G21KT 320V050 10SM BKN038 08/M01 A3013 RMK AO2 SLP210 T00831011

KPSM - Portsmouth/Pease, NH


Distance from station: NNE 48mi, 78km

Updated Thu Dec 8, 2022 1:55pm EST

Few Clouds

Few Clouds

Wind from NW

Wind:

NW 15 mph, 24 km/h,
Gust: 25 mph, 41 km/h

Temperature: 48°F (9°C)

Wind Chill: 42°F (6°C)

Dew Point: 30°F (-1°C)

Humidity: 50%

Barometer: 30.11 in (1019.6 hPa)

Clouds: Few Clouds

Visibility: 10 miles (16 km)

Cloud details: Few Clouds 4000 ft


2022/12/08 18:55 KPSM 081855Z 31013G22KT 10SM FEW040 09/M01 A3011 RMK AO2A SLP199 T00861010

KPVD - Providence/Green, RI


Distance from station: S 51mi, 82km

Updated Thu Dec 8, 2022 1:51pm EST

Mostly cloudy

Mostly cloudy

Wind from WNW

Wind:

WNW 16 mph, 26 km/h,
Gust: 24 mph, 39 km/h

Temperature: 52°F (11°C)

Dew Point: 34°F (1°C)

Humidity: 50%

Barometer: 30.12 in (1020 hPa)

Clouds: Mostly cloudy

Visibility: 10 miles (16 km)

Cloud details: Few Clouds 3500 ft
Few Clouds 25000 ft
Mostly cloudy 30000 ft


2022/12/08 18:51 KPVD 081851Z 30014G21KT 10SM FEW035 FEW250 BKN300 11/01 A3012 RMK AO2 SLP200 T01110011

KCON - Concord, NH


Distance from station: NNW 54mi, 87km

Updated Thu Dec 8, 2022 1:51pm EST

Overcast

Overcast

Wind from NNW

Wind:

NNW 10 mph, 17 km/h,
Gust: 22 mph, 35 km/h

Temperature: 45°F (7°C)

Wind Chill: 40°F (4°C)

Dew Point: 30°F (-1°C)

Humidity: 57%

Barometer: 30.16 in (1021.3 hPa)

Clouds: Overcast

Visibility: 10 miles (16 km)

Cloud details: Mostly cloudy 3500 ft
Overcast 4200 ft


2022/12/08 18:51 KCON 081851Z AUTO 34009G19KT 280V360 10SM BKN035 OVC042 07/M01 A3016 RMK AO2 PK WND 33027/1835 SLP214 T00671006

KEWB - New Bedford, MA


Distance from station: SSE 54mi, 87km

Updated Thu Dec 8, 2022 1:53pm EST

Clear

Clear

Wind from WNW

Wind:

WNW 14 mph, 22 km/h,
Gust: 17 mph, 28 km/h

Temperature: 54°F (12°C)

Dew Point: 36°F (2°C)

Humidity: 51%

Barometer: 30.09 in (1019 hPa)

Clouds: Clear

Visibility: 10 miles (16 km)


2022/12/08 18:53 KEWB 081853Z 30012G15KT 10SM CLR 12/02 A3009 RMK AO2 SLP189 T01220017

KORE - Orange, Massachusetts, USA


Distance from station: W 54mi, 87km

Updated Thu Dec 8, 2022 1:52pm EST

Mostly cloudy

Mostly cloudy

Wind from NNW

Wind:

NNW 9 mph, 15 km/h

Temperature: 48°F (9°C)

Wind Chill: 44°F (7°C)

Dew Point: 30°F (-1°C)

Humidity: 50%

Barometer: 30.17 in (1021.7 hPa)

Clouds: Mostly cloudy

Visibility: 10 miles (16 km)

Cloud details: Mostly cloudy 4500 ft


2022/12/08 18:52 KORE 081852Z AUTO 33008KT 10SM BKN045 09/M01 A3017 RMK AO2 SLP218 T00891006

KPVC - Provincetown, Massachusetts, USA


Distance from station: ESE 58mi, 94km

Updated Thu Dec 8, 2022 1:56pm EST

Few Clouds

Few Clouds

Wind from N

Wind:

N 15 mph, 24 km/h,
Gust: 22 mph, 35 km/h

Temperature: 48°F (9°C)

Wind Chill: 42°F (6°C)

Dew Point: 37°F (3°C)

Humidity: 66%

Barometer: 30.10 in (1019.3 hPa)

Clouds: Few Clouds

Visibility: 10 miles (16 km)

Cloud details: Few Clouds 3500 ft


2022/12/08 18:56 KPVC 081856Z AUTO 35013G19KT 10SM FEW035 09/03 A3010 RMK AO2 SLP192 T00890033

KCEF - Chicopee/Westover, Massachusetts, USA


Distance from station: WSW 67mi, 108km

Updated Thu Dec 8, 2022 1:55pm EST

Mostly cloudy

Mostly cloudy

Wind from N

Wind:

N 7 mph, 11 km/h

Temperature: 48°F (9°C)

Wind Chill: 45°F (7°C)

Dew Point: 36°F (2°C)

Humidity: 62%

Barometer: 30.15 in (1021 hPa)

Clouds: Mostly cloudy

Visibility: 10 miles (16 km)

Cloud details: Mostly cloudy 4500 ft
Mostly cloudy 25000 ft


2022/12/08 18:55 KCEF 081855Z 01006KT 10SM BKN045 BKN250 09/02 A3015 RMK AO2A SLP217 T00870016

KMWN - Mount Washington, NH


Distance from station: N 126mi, 203km

Updated Thu Dec 8, 2022 1:51pm EST

Freezing fog, Overcast

Freezing fog, Overcast

Wind from NW

Wind:

NW 33 mph, 54 km/h,
Gust: 38 mph, 61 km/h

Temperature: 16°F (-9°C)

Wind Chill: -5°F (-21°C)

Dew Point: 16°F (-9°C)

Humidity: 100%

Summary: Freezing Fog

Clouds: Overcast

Visibility: 1/16 mile (0 km)

Cloud details: Overcast 0 ft


2022/12/08 18:51 KMWN 081851Z COR 31029G33KT 1/16SM FZFG VV000 M09/M09 RMK FZFG INTMT VRY LGT ICG

KFUL - Fullerton, California, USA


Distance from station: W 2235mi, 4139km

Updated Thu Dec 8, 2022 10:53am PST

Clear

Clear

Wind from varies

Wind:

varies 3 mph, 6 km/h

Temperature: 61°F (16°C)

Dew Point: 41°F (5°C)

Humidity: 48%

Barometer: 30.29 in (1025.7 hPa)

Clouds: Clear

Visibility: 10 miles (16 km)


2022/12/08 18:53 KFUL 081853Z VRB03KT 10SM CLR 16/05 A3029 RMK AO2 SLP257 T01560050